sensor_id;sensor_type;location;lat;lon;timestamp;P1;durP1;ratioP1;P2;durP2;ratioP2
70010;SDS011;59543;37.950;-122.338;2022-07-19T00:02:16;23.23;;;8.13;;
70010;SDS011;59543;37.950;-122.338;2022-07-19T00:04:42;24.20;;;8.23;;
70010;SDS011;59543;37.950;-122.338;2022-07-19T00:07:08;26.85;;;8.25;;
70010;SDS011;59543;37.950;-122.338;2022-07-19T00:09:34;30.38;;;9.30;;
70010;SDS011;59543;37.950;-122.338;2022-07-19T00:12:00;31.08;;;9.30;;
70010;SDS011;59543;37.950;-122.338;2022-07-19T00:14:26;23.90;;;8.00;;
70010;SDS011;59543;37.950;-122.338;2022-07-19T00:16:53;24.58;;;8.20;;
70010;SDS011;59543;37.950;-122.338;2022-07-19T00:19:19;29.70;;;8.35;;
70010;SDS011;59543;37.950;-122.338;2022-07-19T00:21:45;25.67;;;8.38;;
70010;SDS011;59543;37.950;-122.338;2022-07-19T00:24:11;21.77;;;8.27;;
70010;SDS011;59543;37.950;-122.338;2022-07-19T00:26:38;29.98;;;8.35;;
70010;SDS011;59543;37.950;-122.338;2022-07-19T00:29:04;22.92;;;7.60;;
70010;SDS011;59543;37.950;-122.338;2022-07-19T00:31:31;27.95;;;7.90;;
70010;SDS011;59543;37.950;-122.338;2022-07-19T00:33:57;26.65;;;8.63;;
70010;SDS011;59543;37.950;-122.338;2022-07-19T00:36:23;19.83;;;7.65;;
70010;SDS011;59543;37.950;-122.338;2022-07-19T00:38:49;24.90;;;8.45;;
70010;SDS011;59543;37.950;-122.338;2022-07-19T00:41:16;27.77;;;8.02;;
70010;SDS011;59543;37.950;-122.338;2022-07-19T00:43:42;29.35;;;9.38;;
70010;SDS011;59543;37.950;-122.338;2022-07-19T00:46:13;25.00;;;7.93;;
70010;SDS011;59543;37.950;-122.338;2022-07-19T00:48:40;31.08;;;8.20;;
70010;SDS011;59543;37.950;-122.338;2022-07-19T00:51:10;32.35;;;8.02;;
70010;SDS011;59543;37.950;-122.338;2022-07-19T00:53:38;31.20;;;8.00;;
70010;SDS011;59543;37.950;-122.338;2022-07-19T00:56:06;26.05;;;7.65;;
70010;SDS011;59543;37.950;-122.338;2022-07-19T00:58:34;33.30;;;8.18;;
70010;SDS011;59543;37.950;-122.338;2022-07-19T01:01:01;30.33;;;8.57;;
70010;SDS011;59543;37.950;-122.338;2022-07-19T01:03:29;39.13;;;9.65;;
70010;SDS011;59543;37.950;-122.338;2022-07-19T01:05:55;32.60;;;9.25;;
70010;SDS011;59543;37.950;-122.338;2022-07-19T01:08:22;44.00;;;11.40;;
70010;SDS011;59543;37.950;-122.338;2022-07-19T01:10:48;46.42;;;11.07;;
70010;SDS011;59543;37.950;-122.338;2022-07-19T01:13:15;44.97;;;11.18;;
70010;SDS011;59543;37.950;-122.338;2022-07-19T01:15:41;50.03;;;11.75;;
70010;SDS011;59543;37.950;-122.338;2022-07-19T01:18:08;40.78;;;11.35;;
70010;SDS011;59543;37.950;-122.338;2022-07-19T01:20:35;49.92;;;11.38;;
70010;SDS011;59543;37.950;-122.338;2022-07-19T01:23:02;44.75;;;11.43;;
70010;SDS011;59543;37.950;-122.338;2022-07-19T01:25:32;44.28;;;10.90;;
70010;SDS011;59543;37.950;-122.338;2022-07-19T01:28:02;47.67;;;11.30;;
70010;SDS011;59543;37.950;-122.338;2022-07-19T01:30:31;52.83;;;12.27;;
70010;SDS011;59543;37.950;-122.338;2022-07-19T01:32:57;52.30;;;11.77;;
70010;SDS011;59543;37.950;-122.338;2022-07-19T01:35:24;45.17;;;11.55;;
70010;SDS011;59543;37.950;-122.338;2022-07-19T01:37:51;67.90;;;13.13;;
70010;SDS011;59543;37.950;-122.338;2022-07-19T01:40:18;55.22;;;11.77;;
70010;SDS011;59543;37.950;-122.338;2022-07-19T01:42:45;47.95;;;11.45;;
70010;SDS011;59543;37.950;-122.338;2022-07-19T01:45:12;44.83;;;11.77;;
70010;SDS011;59543;37.950;-122.338;2022-07-19T01:47:39;46.65;;;11.48;;
70010;SDS011;59543;37.950;-122.338;2022-07-19T01:50:07;44.42;;;11.90;;
70010;SDS011;59543;37.950;-122.338;2022-07-19T01:52:34;55.13;;;12.50;;
70010;SDS011;59543;37.950;-122.338;2022-07-19T01:55:01;60.22;;;12.85;;
70010;SDS011;59543;37.950;-122.338;2022-07-19T01:57:27;65.28;;;12.15;;
70010;SDS011;59543;37.950;-122.338;2022-07-19T01:59:54;48.53;;;12.10;;
70010;SDS011;59543;37.950;-122.338;2022-07-19T02:02:20;59.03;;;12.75;;
70010;SDS011;59543;37.950;-122.338;2022-07-19T02:04:46;56.10;;;13.18;;
70010;SDS011;59543;37.950;-122.338;2022-07-19T02:07:13;59.53;;;12.27;;
70010;SDS011;59543;37.950;-122.338;2022-07-19T02:09:39;63.00;;;12.73;;
70010;SDS011;59543;37.950;-122.338;2022-07-19T02:12:05;62.63;;;12.80;;
70010;SDS011;59543;37.950;-122.338;2022-07-19T02:14:32;60.28;;;14.00;;
70010;SDS011;59543;37.950;-122.338;2022-07-19T02:16:58;51.92;;;12.27;;
70010;SDS011;59543;37.950;-122.338;2022-07-19T02:19:24;50.90;;;12.20;;
70010;SDS011;59543;37.950;-122.338;2022-07-19T02:21:50;55.85;;;12.02;;
70010;SDS011;59543;37.950;-122.338;2022-07-19T02:24:17;55.28;;;12.80;;
70010;SDS011;59543;37.950;-122.338;2022-07-19T02:26:43;51.25;;;11.95;;
70010;SDS011;59543;37.950;-122.338;2022-07-19T02:29:09;57.15;;;12.32;;
70010;SDS011;59543;37.950;-122.338;2022-07-19T02:31:35;49.72;;;11.63;;
70010;SDS011;59543;37.950;-122.338;2022-07-19T02:34:02;52.08;;;12.45;;
70010;SDS011;59543;37.950;-122.338;2022-07-19T02:36:28;59.53;;;12.60;;
70010;SDS011;59543;37.950;-122.338;2022-07-19T02:38:54;58.63;;;13.40;;
70010;SDS011;59543;37.950;-122.338;2022-07-19T02:41:21;56.35;;;13.43;;
70010;SDS011;59543;37.950;-122.338;2022-07-19T02:43:47;54.30;;;13.27;;
70010;SDS011;59543;37.950;-122.338;2022-07-19T02:46:13;56.53;;;12.82;;
70010;SDS011;59543;37.950;-122.338;2022-07-19T02:48:40;56.75;;;12.70;;
70010;SDS011;59543;37.950;-122.338;2022-07-19T02:51:09;55.88;;;13.07;;
70010;SDS011;59543;37.950;-122.338;2022-07-19T02:53:37;78.82;;;14.18;;
70010;SDS011;59543;37.950;-122.338;2022-07-19T02:56:04;67.32;;;14.40;;
70010;SDS011;59543;37.950;-122.338;2022-07-19T02:58:30;57.30;;;13.00;;
70010;SDS011;59543;37.950;-122.338;2022-07-19T03:00:56;76.45;;;13.50;;
70010;SDS011;59543;37.950;-122.338;2022-07-19T03:03:23;56.42;;;12.65;;
70010;SDS011;59543;37.950;-122.338;2022-07-19T03:06:07;72.25;;;14.35;;
70010;SDS011;59543;37.950;-122.338;2022-07-19T03:08:34;75.82;;;14.32;;
70010;SDS011;59543;37.950;-122.338;2022-07-19T03:11:00;82.40;;;15.23;;
70010;SDS011;59543;37.950;-122.338;2022-07-19T03:13:26;73.97;;;14.10;;
70010;SDS011;59543;37.950;-122.338;2022-07-19T03:15:52;72.68;;;14.57;;
70010;SDS011;59543;37.950;-122.338;2022-07-19T03:18:19;71.60;;;15.23;;
70010;SDS011;59543;37.950;-122.338;2022-07-19T03:20:45;69.75;;;14.30;;
70010;SDS011;59543;37.950;-122.338;2022-07-19T03:23:11;67.43;;;14.95;;
70010;SDS011;59543;37.950;-122.338;2022-07-19T03:25:37;67.60;;;13.77;;
70010;SDS011;59543;37.950;-122.338;2022-07-19T03:28:03;79.82;;;15.85;;
70010;SDS011;59543;37.950;-122.338;2022-07-19T03:30:30;78.45;;;15.95;;
70010;SDS011;59543;37.950;-122.338;2022-07-19T03:32:59;79.72;;;15.25;;
70010;SDS011;59543;37.950;-122.338;2022-07-19T03:35:25;66.05;;;13.85;;
70010;SDS011;59543;37.950;-122.338;2022-07-19T03:37:52;77.35;;;14.13;;
70010;SDS011;59543;37.950;-122.338;2022-07-19T03:40:18;84.82;;;15.27;;
70010;SDS011;59543;37.950;-122.338;2022-07-19T03:42:44;73.53;;;14.73;;
70010;SDS011;59543;37.950;-122.338;2022-07-19T03:45:10;73.50;;;14.82;;
70010;SDS011;59543;37.950;-122.338;2022-07-19T03:47:37;74.72;;;14.57;;
70010;SDS011;59543;37.950;-122.338;2022-07-19T03:50:03;64.40;;;14.02;;
70010;SDS011;59543;37.950;-122.338;2022-07-19T03:52:30;73.05;;;14.60;;
70010;SDS011;59543;37.950;-122.338;2022-07-19T03:54:56;67.90;;;14.95;;
70010;SDS011;59543;37.950;-122.338;2022-07-19T03:57:22;76.85;;;15.70;;
70010;SDS011;59543;37.950;-122.338;2022-07-19T03:59:48;72.07;;;14.63;;
70010;SDS011;59543;37.950;-122.338;2022-07-19T04:02:15;80.60;;;15.40;;
70010;SDS011;59543;37.950;-122.338;2022-07-19T04:04:41;86.60;;;15.32;;
70010;SDS011;59543;37.950;-122.338;2022-07-19T04:07:07;83.63;;;15.30;;
70010;SDS011;59543;37.950;-122.338;2022-07-19T04:09:33;74.20;;;15.43;;
70010;SDS011;59543;37.950;-122.338;2022-07-19T04:11:59;88.53;;;16.02;;
70010;SDS011;59543;37.950;-122.338;2022-07-19T04:14:26;76.05;;;15.15;;
70010;SDS011;59543;37.950;-122.338;2022-07-19T04:16:52;71.95;;;15.18;;
70010;SDS011;59543;37.950;-122.338;2022-07-19T04:19:18;67.00;;;14.38;;
70010;SDS011;59543;37.950;-122.338;2022-07-19T04:21:44;84.20;;;15.38;;
70010;SDS011;59543;37.950;-122.338;2022-07-19T04:24:10;78.80;;;14.75;;
70010;SDS011;59543;37.950;-122.338;2022-07-19T04:26:37;87.15;;;15.82;;
70010;SDS011;59543;37.950;-122.338;2022-07-19T04:29:03;74.85;;;15.55;;
70010;SDS011;59543;37.950;-122.338;2022-07-19T04:31:29;67.93;;;14.35;;
70010;SDS011;59543;37.950;-122.338;2022-07-19T04:33:56;85.30;;;15.32;;
70010;SDS011;59543;37.950;-122.338;2022-07-19T04:36:22;95.32;;;16.13;;
70010;SDS011;59543;37.950;-122.338;2022-07-19T04:38:48;84.82;;;15.98;;
70010;SDS011;59543;37.950;-122.338;2022-07-19T04:41:14;75.82;;;15.30;;
70010;SDS011;59543;37.950;-122.338;2022-07-19T04:43:40;77.20;;;14.50;;
70010;SDS011;59543;37.950;-122.338;2022-07-19T04:46:07;70.53;;;14.60;;
70010;SDS011;59543;37.950;-122.338;2022-07-19T04:48:33;80.05;;;15.43;;
70010;SDS011;59543;37.950;-122.338;2022-07-19T04:50:59;70.28;;;14.48;;
70010;SDS011;59543;37.950;-122.338;2022-07-19T04:53:25;66.85;;;13.52;;
70010;SDS011;59543;37.950;-122.338;2022-07-19T04:55:51;77.45;;;14.80;;
70010;SDS011;59543;37.950;-122.338;2022-07-19T04:58:17;80.32;;;14.95;;
70010;SDS011;59543;37.950;-122.338;2022-07-19T05:00:44;73.25;;;14.82;;
70010;SDS011;59543;37.950;-122.338;2022-07-19T05:03:10;73.75;;;13.93;;
70010;SDS011;59543;37.950;-122.338;2022-07-19T05:05:36;87.90;;;15.07;;
70010;SDS011;59543;37.950;-122.338;2022-07-19T05:08:02;77.10;;;14.02;;
70010;SDS011;59543;37.950;-122.338;2022-07-19T05:10:29;81.00;;;15.25;;
70010;SDS011;59543;37.950;-122.338;2022-07-19T05:12:55;61.03;;;13.27;;
70010;SDS011;59543;37.950;-122.338;2022-07-19T05:15:21;67.28;;;14.30;;
70010;SDS011;59543;37.950;-122.338;2022-07-19T05:17:47;63.78;;;13.77;;
70010;SDS011;59543;37.950;-122.338;2022-07-19T05:20:14;69.10;;;13.70;;
70010;SDS011;59543;37.950;-122.338;2022-07-19T05:22:42;71.88;;;13.68;;
70010;SDS011;59543;37.950;-122.338;2022-07-19T05:25:09;73.22;;;13.35;;
70010;SDS011;59543;37.950;-122.338;2022-07-19T05:27:36;75.25;;;14.20;;
70010;SDS011;59543;37.950;-122.338;2022-07-19T05:30:05;72.68;;;13.45;;
70010;SDS011;59543;37.950;-122.338;2022-07-19T05:32:32;74.00;;;14.25;;
70010;SDS011;59543;37.950;-122.338;2022-07-19T05:34:58;70.07;;;13.70;;
70010;SDS011;59543;37.950;-122.338;2022-07-19T05:37:25;63.08;;;14.38;;
70010;SDS011;59543;37.950;-122.338;2022-07-19T05:39:51;70.20;;;14.77;;
70010;SDS011;59543;37.950;-122.338;2022-07-19T05:42:17;60.70;;;12.98;;
70010;SDS011;59543;37.950;-122.338;2022-07-19T05:44:43;81.68;;;14.05;;
70010;SDS011;59543;37.950;-122.338;2022-07-19T05:47:09;66.50;;;13.50;;
70010;SDS011;59543;37.950;-122.338;2022-07-19T05:49:36;66.55;;;12.98;;
70010;SDS011;59543;37.950;-122.338;2022-07-19T05:52:02;70.82;;;13.60;;
70010;SDS011;59543;37.950;-122.338;2022-07-19T05:54:28;69.20;;;13.75;;
70010;SDS011;59543;37.950;-122.338;2022-07-19T05:56:55;83.97;;;14.30;;
70010;SDS011;59543;37.950;-122.338;2022-07-19T05:59:21;72.85;;;14.40;;
70010;SDS011;59543;37.950;-122.338;2022-07-19T06:01:48;76.07;;;14.95;;
70010;SDS011;59543;37.950;-122.338;2022-07-19T06:04:15;72.95;;;13.30;;
70010;SDS011;59543;37.950;-122.338;2022-07-19T06:06:41;61.83;;;13.43;;
70010;SDS011;59543;37.950;-122.338;2022-07-19T06:09:08;72.13;;;13.90;;
70010;SDS011;59543;37.950;-122.338;2022-07-19T06:11:37;74.65;;;13.38;;
70010;SDS011;59543;37.950;-122.338;2022-07-19T06:14:05;70.53;;;13.90;;
70010;SDS011;59543;37.950;-122.338;2022-07-19T06:16:34;76.95;;;14.68;;
70010;SDS011;59543;37.950;-122.338;2022-07-19T06:19:03;73.40;;;13.77;;
70010;SDS011;59543;37.950;-122.338;2022-07-19T06:21:30;76.35;;;13.73;;
70010;SDS011;59543;37.950;-122.338;2022-07-19T06:23:57;81.40;;;14.65;;
70010;SDS011;59543;37.950;-122.338;2022-07-19T06:26:24;77.65;;;14.35;;
70010;SDS011;59543;37.950;-122.338;2022-07-19T06:28:52;70.18;;;13.77;;
70010;SDS011;59543;37.950;-122.338;2022-07-19T06:31:19;81.95;;;14.52;;
70010;SDS011;59543;37.950;-122.338;2022-07-19T06:33:46;74.90;;;14.20;;
70010;SDS011;59543;37.950;-122.338;2022-07-19T06:36:13;71.28;;;14.35;;
70010;SDS011;59543;37.950;-122.338;2022-07-19T06:38:39;85.32;;;15.23;;
70010;SDS011;59543;37.950;-122.338;2022-07-19T06:41:09;64.97;;;14.07;;
70010;SDS011;59543;37.950;-122.338;2022-07-19T06:43:37;79.47;;;15.02;;
70010;SDS011;59543;37.950;-122.338;2022-07-19T06:46:04;83.40;;;14.88;;
70010;SDS011;59543;37.950;-122.338;2022-07-19T06:48:31;61.38;;;12.93;;
70010;SDS011;59543;37.950;-122.338;2022-07-19T06:50:57;73.68;;;13.80;;
70010;SDS011;59543;37.950;-122.338;2022-07-19T06:53:23;73.97;;;13.98;;
70010;SDS011;59543;37.950;-122.338;2022-07-19T06:55:50;80.20;;;13.77;;
70010;SDS011;59543;37.950;-122.338;2022-07-19T06:58:16;63.72;;;14.05;;
70010;SDS011;59543;37.950;-122.338;2022-07-19T07:00:43;67.15;;;13.32;;
70010;SDS011;59543;37.950;-122.338;2022-07-19T07:03:09;79.97;;;14.60;;
70010;SDS011;59543;37.950;-122.338;2022-07-19T07:05:35;67.70;;;14.18;;
70010;SDS011;59543;37.950;-122.338;2022-07-19T07:08:02;72.90;;;14.18;;
70010;SDS011;59543;37.950;-122.338;2022-07-19T07:10:28;71.72;;;13.80;;
70010;SDS011;59543;37.950;-122.338;2022-07-19T07:12:55;75.35;;;14.07;;
70010;SDS011;59543;37.950;-122.338;2022-07-19T07:15:21;80.22;;;13.82;;
70010;SDS011;59543;37.950;-122.338;2022-07-19T07:17:47;92.75;;;14.80;;
70010;SDS011;59543;37.950;-122.338;2022-07-19T07:20:13;69.15;;;13.38;;
70010;SDS011;59543;37.950;-122.338;2022-07-19T07:22:39;76.88;;;13.93;;
70010;SDS011;59543;37.950;-122.338;2022-07-19T07:25:06;76.28;;;13.88;;
70010;SDS011;59543;37.950;-122.338;2022-07-19T07:27:33;71.72;;;13.70;;
70010;SDS011;59543;37.950;-122.338;2022-07-19T07:29:59;76.43;;;14.52;;
70010;SDS011;59543;37.950;-122.338;2022-07-19T07:32:25;83.68;;;15.05;;
70010;SDS011;59543;37.950;-122.338;2022-07-19T07:34:53;85.07;;;13.95;;
70010;SDS011;59543;37.950;-122.338;2022-07-19T07:37:20;77.78;;;14.30;;
70010;SDS011;59543;37.950;-122.338;2022-07-19T07:39:46;75.93;;;14.13;;
70010;SDS011;59543;37.950;-122.338;2022-07-19T07:42:12;72.40;;;13.95;;
70010;SDS011;59543;37.950;-122.338;2022-07-19T07:44:39;74.72;;;15.07;;
70010;SDS011;59543;37.950;-122.338;2022-07-19T07:47:06;69.55;;;14.57;;
70010;SDS011;59543;37.950;-122.338;2022-07-19T07:49:34;73.07;;;14.15;;
70010;SDS011;59543;37.950;-122.338;2022-07-19T07:52:01;74.85;;;14.65;;
70010;SDS011;59543;37.950;-122.338;2022-07-19T07:54:27;75.18;;;13.52;;
70010;SDS011;59543;37.950;-122.338;2022-07-19T07:56:53;76.88;;;13.98;;
70010;SDS011;59543;37.950;-122.338;2022-07-19T07:59:19;75.13;;;14.80;;
70010;SDS011;59543;37.950;-122.338;2022-07-19T08:01:46;68.90;;;13.73;;
70010;SDS011;59543;37.950;-122.338;2022-07-19T08:04:12;78.90;;;15.10;;
70010;SDS011;59543;37.950;-122.338;2022-07-19T08:06:38;73.28;;;14.43;;
70010;SDS011;59543;37.950;-122.338;2022-07-19T08:09:04;76.32;;;14.70;;
70010;SDS011;59543;37.950;-122.338;2022-07-19T08:11:31;74.13;;;14.75;;
70010;SDS011;59543;37.950;-122.338;2022-07-19T08:13:57;74.55;;;14.82;;
70010;SDS011;59543;37.950;-122.338;2022-07-19T08:16:23;77.10;;;14.02;;
70010;SDS011;59543;37.950;-122.338;2022-07-19T08:18:49;83.43;;;14.02;;
70010;SDS011;59543;37.950;-122.338;2022-07-19T08:21:15;78.25;;;14.40;;
70010;SDS011;59543;37.950;-122.338;2022-07-19T08:23:42;77.72;;;14.43;;
70010;SDS011;59543;37.950;-122.338;2022-07-19T08:26:08;74.38;;;14.27;;
70010;SDS011;59543;37.950;-122.338;2022-07-19T08:28:35;76.85;;;13.80;;
70010;SDS011;59543;37.950;-122.338;2022-07-19T08:31:01;85.32;;;15.40;;
70010;SDS011;59543;37.950;-122.338;2022-07-19T08:33:28;73.30;;;14.38;;
70010;SDS011;59543;37.950;-122.338;2022-07-19T08:35:54;81.97;;;15.00;;
70010;SDS011;59543;37.950;-122.338;2022-07-19T08:38:20;88.25;;;14.70;;
70010;SDS011;59543;37.950;-122.338;2022-07-19T08:40:46;89.68;;;15.38;;
70010;SDS011;59543;37.950;-122.338;2022-07-19T08:43:16;78.85;;;13.93;;
70010;SDS011;59543;37.950;-122.338;2022-07-19T08:45:46;70.82;;;15.15;;
70010;SDS011;59543;37.950;-122.338;2022-07-19T08:48:13;74.72;;;13.68;;
70010;SDS011;59543;37.950;-122.338;2022-07-19T08:50:40;80.05;;;13.52;;
70010;SDS011;59543;37.950;-122.338;2022-07-19T08:53:07;73.03;;;14.02;;
70010;SDS011;59543;37.950;-122.338;2022-07-19T08:55:33;70.72;;;13.18;;
70010;SDS011;59543;37.950;-122.338;2022-07-19T08:57:59;83.35;;;14.52;;
70010;SDS011;59543;37.950;-122.338;2022-07-19T09:00:30;80.10;;;13.73;;
70010;SDS011;59543;37.950;-122.338;2022-07-19T09:02:58;79.15;;;14.27;;
70010;SDS011;59543;37.950;-122.338;2022-07-19T09:05:29;90.88;;;15.18;;
70010;SDS011;59543;37.950;-122.338;2022-07-19T09:08:09;84.63;;;15.10;;
70010;SDS011;59543;37.950;-122.338;2022-07-19T09:10:36;79.07;;;14.23;;
70010;SDS011;59543;37.950;-122.338;2022-07-19T09:18:21;73.40;;;13.35;;
70010;SDS011;59543;37.950;-122.338;2022-07-19T09:20:52;88.13;;;14.25;;
70010;SDS011;59543;37.950;-122.338;2022-07-19T09:23:21;88.32;;;15.15;;
70010;SDS011;59543;37.950;-122.338;2022-07-19T09:28:19;82.10;;;14.82;;
70010;SDS011;59543;37.950;-122.338;2022-07-19T09:30:54;67.47;;;13.55;;
70010;SDS011;59543;37.950;-122.338;2022-07-19T09:33:25;93.80;;;15.52;;
70010;SDS011;59543;37.950;-122.338;2022-07-19T09:35:54;80.93;;;14.15;;
70010;SDS011;59543;37.950;-122.338;2022-07-19T09:38:29;86.53;;;15.32;;
70010;SDS011;59543;37.950;-122.338;2022-07-19T09:41:16;90.05;;;16.38;;
70010;SDS011;59543;37.950;-122.338;2022-07-19T09:43:59;80.13;;;14.55;;
70010;SDS011;59543;37.950;-122.338;2022-07-19T09:49:07;81.95;;;13.80;;
70010;SDS011;59543;37.950;-122.338;2022-07-19T09:51:36;84.05;;;14.23;;
70010;SDS011;59543;37.950;-122.338;2022-07-19T09:54:04;77.25;;;14.20;;
70010;SDS011;59543;37.950;-122.338;2022-07-19T09:56:31;74.95;;;14.32;;
70010;SDS011;59543;37.950;-122.338;2022-07-19T09:58:58;89.65;;;14.98;;
70010;SDS011;59543;37.950;-122.338;2022-07-19T10:01:28;79.95;;;14.45;;
70010;SDS011;59543;37.950;-122.338;2022-07-19T10:03:56;83.78;;;14.95;;
70010;SDS011;59543;37.950;-122.338;2022-07-19T10:06:49;86.10;;;14.82;;
70010;SDS011;59543;37.950;-122.338;2022-07-19T10:09:18;87.90;;;14.48;;
70010;SDS011;59543;37.950;-122.338;2022-07-19T10:11:46;83.45;;;14.60;;
70010;SDS011;59543;37.950;-122.338;2022-07-19T10:14:13;89.00;;;13.27;;
70010;SDS011;59543;37.950;-122.338;2022-07-19T10:21:48;79.75;;;14.80;;
70010;SDS011;59543;37.950;-122.338;2022-07-19T10:24:39;82.13;;;14.70;;
70010;SDS011;59543;37.950;-122.338;2022-07-19T10:27:08;70.53;;;14.23;;
70010;SDS011;59543;37.950;-122.338;2022-07-19T10:29:34;77.78;;;13.27;;
70010;SDS011;59543;37.950;-122.338;2022-07-19T10:32:08;70.38;;;13.32;;
70010;SDS011;59543;37.950;-122.338;2022-07-19T10:34:37;60.38;;;12.35;;
70010;SDS011;59543;37.950;-122.338;2022-07-19T10:37:03;74.90;;;13.95;;
70010;SDS011;59543;37.950;-122.338;2022-07-19T10:39:32;73.60;;;12.63;;
70010;SDS011;59543;37.950;-122.338;2022-07-19T10:42:19;76.75;;;13.68;;
70010;SDS011;59543;37.950;-122.338;2022-07-19T10:45:31;72.00;;;13.13;;
70010;SDS011;59543;37.950;-122.338;2022-07-19T10:50:08;66.35;;;13.35;;
70010;SDS011;59543;37.950;-122.338;2022-07-19T10:52:40;71.18;;;13.38;;
70010;SDS011;59543;37.950;-122.338;2022-07-19T10:57:43;80.85;;;13.45;;
70010;SDS011;59543;37.950;-122.338;2022-07-19T11:02:45;80.20;;;14.27;;
70010;SDS011;59543;37.950;-122.338;2022-07-19T11:07:48;88.07;;;14.55;;
70010;SDS011;59543;37.950;-122.338;2022-07-19T11:10:22;96.13;;;15.70;;
70010;SDS011;59543;37.950;-122.338;2022-07-19T11:12:53;74.97;;;13.98;;
70010;SDS011;59543;37.950;-122.338;2022-07-19T11:15:24;85.60;;;14.93;;
70010;SDS011;59543;37.950;-122.338;2022-07-19T11:18:06;78.50;;;14.02;;
70010;SDS011;59543;37.950;-122.338;2022-07-19T11:20:34;67.13;;;12.68;;
70010;SDS011;59543;37.950;-122.338;2022-07-19T11:23:02;70.10;;;12.82;;
70010;SDS011;59543;37.950;-122.338;2022-07-19T11:25:31;70.97;;;13.27;;
70010;SDS011;59543;37.950;-122.338;2022-07-19T11:27:59;77.32;;;13.15;;
70010;SDS011;59543;37.950;-122.338;2022-07-19T11:30:27;77.07;;;14.50;;
70010;SDS011;59543;37.950;-122.338;2022-07-19T11:32:57;76.85;;;13.32;;
70010;SDS011;59543;37.950;-122.338;2022-07-19T11:35:25;73.53;;;12.55;;
70010;SDS011;59543;37.950;-122.338;2022-07-19T11:37:53;77.10;;;13.93;;
70010;SDS011;59543;37.950;-122.338;2022-07-19T11:40:21;80.25;;;14.07;;
70010;SDS011;59543;37.950;-122.338;2022-07-19T11:42:48;75.72;;;13.93;;
70010;SDS011;59543;37.950;-122.338;2022-07-19T11:45:17;78.72;;;13.80;;
70010;SDS011;59543;37.950;-122.338;2022-07-19T11:47:46;77.20;;;13.27;;
70010;SDS011;59543;37.950;-122.338;2022-07-19T11:50:18;73.43;;;13.27;;
70010;SDS011;59543;37.950;-122.338;2022-07-19T11:52:50;66.70;;;12.75;;
70010;SDS011;59543;37.950;-122.338;2022-07-19T11:55:25;66.63;;;11.70;;
70010;SDS011;59543;37.950;-122.338;2022-07-19T11:57:53;68.35;;;13.18;;
70010;SDS011;59543;37.950;-122.338;2022-07-19T12:00:20;65.55;;;12.13;;
70010;SDS011;59543;37.950;-122.338;2022-07-19T12:05:33;64.80;;;12.30;;
70010;SDS011;59543;37.950;-122.338;2022-07-19T12:08:05;63.15;;;12.25;;
70010;SDS011;59543;37.950;-122.338;2022-07-19T12:10:36;75.00;;;12.80;;
70010;SDS011;59543;37.950;-122.338;2022-07-19T12:13:27;68.95;;;12.25;;
70010;SDS011;59543;37.950;-122.338;2022-07-19T12:15:59;77.55;;;13.10;;
70010;SDS011;59543;37.950;-122.338;2022-07-19T12:18:52;64.88;;;12.73;;
70010;SDS011;59543;37.950;-122.338;2022-07-19T12:26:40;59.45;;;11.45;;
70010;SDS011;59543;37.950;-122.338;2022-07-19T12:29:20;59.85;;;11.23;;
70010;SDS011;59543;37.950;-122.338;2022-07-19T12:31:50;60.70;;;12.80;;
70010;SDS011;59543;37.950;-122.338;2022-07-19T12:34:18;68.35;;;12.07;;
70010;SDS011;59543;37.950;-122.338;2022-07-19T12:36:44;62.63;;;12.55;;
70010;SDS011;59543;37.950;-122.338;2022-07-19T12:39:21;68.25;;;12.38;;
70010;SDS011;59543;37.950;-122.338;2022-07-19T12:41:55;65.25;;;12.18;;
70010;SDS011;59543;37.950;-122.338;2022-07-19T12:44:42;56.53;;;10.75;;
70010;SDS011;59543;37.950;-122.338;2022-07-19T12:47:08;51.17;;;10.88;;
70010;SDS011;59543;37.950;-122.338;2022-07-19T12:49:44;55.60;;;11.02;;
70010;SDS011;59543;37.950;-122.338;2022-07-19T12:52:12;41.42;;;9.68;;
70010;SDS011;59543;37.950;-122.338;2022-07-19T12:54:38;52.08;;;10.38;;
70010;SDS011;59543;37.950;-122.338;2022-07-19T12:57:04;57.90;;;10.60;;
70010;SDS011;59543;37.950;-122.338;2022-07-19T12:59:31;51.42;;;10.35;;
70010;SDS011;59543;37.950;-122.338;2022-07-19T13:02:10;47.65;;;9.93;;
70010;SDS011;59543;37.950;-122.338;2022-07-19T13:04:39;37.70;;;9.20;;
70010;SDS011;59543;37.950;-122.338;2022-07-19T13:07:08;45.47;;;9.63;;
70010;SDS011;59543;37.950;-122.338;2022-07-19T13:09:35;50.97;;;9.45;;
70010;SDS011;59543;37.950;-122.338;2022-07-19T13:12:03;37.92;;;8.38;;
70010;SDS011;59543;37.950;-122.338;2022-07-19T13:14:31;35.25;;;8.38;;
70010;SDS011;59543;37.950;-122.338;2022-07-19T13:16:59;33.47;;;7.78;;
70010;SDS011;59543;37.950;-122.338;2022-07-19T13:19:26;25.67;;;6.68;;
70010;SDS011;59543;37.950;-122.338;2022-07-19T13:21:52;27.60;;;6.20;;
70010;SDS011;59543;37.950;-122.338;2022-07-19T13:24:19;15.18;;;4.72;;
70010;SDS011;59543;37.950;-122.338;2022-07-19T13:26:45;15.50;;;4.43;;
70010;SDS011;59543;37.950;-122.338;2022-07-19T13:29:12;19.63;;;4.60;;
70010;SDS011;59543;37.950;-122.338;2022-07-19T13:31:39;19.38;;;4.75;;
70010;SDS011;59543;37.950;-122.338;2022-07-19T13:34:05;13.75;;;4.18;;
70010;SDS011;59543;37.950;-122.338;2022-07-19T13:36:31;12.48;;;3.88;;
70010;SDS011;59543;37.950;-122.338;2022-07-19T13:38:58;13.10;;;3.50;;
70010;SDS011;59543;37.950;-122.338;2022-07-19T13:41:24;13.07;;;4.07;;
70010;SDS011;59543;37.950;-122.338;2022-07-19T13:43:50;14.07;;;4.13;;
70010;SDS011;59543;37.950;-122.338;2022-07-19T13:46:19;11.80;;;3.80;;
70010;SDS011;59543;37.950;-122.338;2022-07-19T13:48:46;12.95;;;3.45;;
70010;SDS011;59543;37.950;-122.338;2022-07-19T13:51:13;12.82;;;3.42;;
70010;SDS011;59543;37.950;-122.338;2022-07-19T13:53:40;13.27;;;3.60;;
70010;SDS011;59543;37.950;-122.338;2022-07-19T13:56:06;11.73;;;3.65;;
70010;SDS011;59543;37.950;-122.338;2022-07-19T13:58:32;14.27;;;4.00;;
70010;SDS011;59543;37.950;-122.338;2022-07-19T14:00:59;14.15;;;3.67;;
70010;SDS011;59543;37.950;-122.338;2022-07-19T14:03:25;14.45;;;4.35;;
70010;SDS011;59543;37.950;-122.338;2022-07-19T14:05:51;13.70;;;4.28;;
70010;SDS011;59543;37.950;-122.338;2022-07-19T14:08:17;18.15;;;4.20;;
70010;SDS011;59543;37.950;-122.338;2022-07-19T14:10:43;10.98;;;3.42;;
70010;SDS011;59543;37.950;-122.338;2022-07-19T14:13:10;10.27;;;3.53;;
70010;SDS011;59543;37.950;-122.338;2022-07-19T14:15:38;9.02;;;3.38;;
70010;SDS011;59543;37.950;-122.338;2022-07-19T14:18:04;12.10;;;3.67;;
70010;SDS011;59543;37.950;-122.338;2022-07-19T14:20:30;13.18;;;3.97;;
70010;SDS011;59543;37.950;-122.338;2022-07-19T14:22:56;18.17;;;3.75;;
70010;SDS011;59543;37.950;-122.338;2022-07-19T14:25:23;11.88;;;3.80;;